CYDF/YDF METAR and TAF weather

Enter ICAO airport designator
Station Type Date Time Source
CYDF METAR 2021/03/05 18:00 UTC NOAA

CYDF 051800Z 22011KT 15SM OVC033 M03/M10 A2935 RMK SC8 SLP941


Station Type Date Time Source
CYDF Decoded METAR 2021/03/05 18:00 UTC NOAA

Deer Lake, Nfld., Canada (CYDF) 49-13N 057-24W 22M
Mar 05, 2021 - 01:00 PM EST / 2021.03.05 1800 UTC
Wind: from the SW (220 degrees) at 13 MPH (11 KT):0
Visibility: 15 mile(s):0
Sky conditions: overcast
Temperature: 26 F (-3 C)
Windchill: 14 F (-10 C):1
Dew Point: 14 F (-10 C)
Relative Humidity: 58%
Pressure (altimeter): 29.35 in. Hg (993 hPa)
ob: CYDF 051800Z 22011KT 15SM OVC033 M03/M10 A2935 RMK SC8 SLP941
cycle: 18

Station Type Date Time Source
CYDF TAF 2021/03/05 14:42 UTC NOAA

TAF CYDF 051341Z 0514/0602 21010KT P6SM OVC040
TEMPO 0514/0602 4SM -SHSN BKN020 OVC040
BECMG 0520/0522 22007KT
RMK NXT FCST BY 052000Z

Example: see airport list